Terminal Aerodrome Forecast
Issued by NWS Hastings, NE

Home | Current Version | Previous Version | Text Only | Print | Product List | Glossary On
Versions: 1 2 3 4 5 6 7 8 9 10 11 12 13 14 15 16 17 18 19 20 21 22 23 24 25 26 27 28 29 30 31 32 33 34
000
FTUS43 KGID 210534
TAFGRI
TAF
KGRI 210534Z 2106/2206 24005KT 1 1/2SM BR OVC003
     FM210800 27006KT 3SM BR OVC020
     FM211100 27006KT 4SM BR BKN035
     FM211500 26005KT P6SM BKN130
     FM211700 27005KT P6SM BKN200
     FM220200 34004KT P6SM FEW250=

USA.gov is the U.S. government's official web portal to all federal, state and local government web resources and services.